createdAt,value
2024-02-15T00:03:16.105Z,101749.78
2024-02-15T00:08:13.184Z,101755.91
2024-02-15T00:13:11.169Z,101759.28
2024-02-15T00:18:08.113Z,101759.47
2024-02-15T00:23:04.899Z,101755.09
2024-02-15T00:28:02.352Z,101751.63
2024-02-15T00:33:00.021Z,101755.16
2024-02-15T00:37:57.812Z,101757.13
2024-02-15T00:42:55.373Z,101750.94
2024-02-15T00:47:52.108Z,101752.63
2024-02-15T00:52:49.392Z,101757.78
2024-02-15T00:57:45.900Z,101756.91
2024-02-15T01:02:42.469Z,101756.66
2024-02-15T01:07:39.040Z,101756.19
2024-02-15T01:12:36.316Z,101756.38
2024-02-15T01:17:32.921Z,101756.88
2024-02-15T01:22:29.520Z,101755.59
2024-02-15T01:27:30.265Z,101757.78
2024-02-15T01:32:27.527Z,101760.84
2024-02-15T01:37:24.141Z,101765.78
2024-02-15T01:42:20.691Z,101763.47
2024-02-15T01:47:17.804Z,101767.97
2024-02-15T01:52:16.498Z,101771.75
2024-02-15T01:57:13.101Z,101775.31
2024-02-15T02:02:11.648Z,101771.31
2024-02-15T02:07:08.550Z,101768.63
2024-02-15T02:12:07.951Z,101768.69
2024-02-15T02:17:22.447Z,101774.78
2024-02-15T02:22:19.919Z,101774.81
2024-02-15T02:27:18.166Z,101774.78
2024-02-15T02:32:14.669Z,101790.47
2024-02-15T02:37:12.420Z,101787.91
2024-02-15T02:42:08.926Z,101795.19
2024-02-15T02:47:06.171Z,101782.34
2024-02-15T02:52:03.473Z,101786.56
2024-02-15T02:57:00.162Z,101791.88
2024-02-15T03:01:57.872Z,101789.47
2024-02-15T03:06:56.471Z,101770.34
2024-02-15T03:11:53.041Z,101777.31
2024-02-15T03:16:49.601Z,101783.09
2024-02-15T03:21:47.115Z,101775.69
2024-02-15T03:26:44.741Z,101779.56
2024-02-15T03:31:41.245Z,101766.41
2024-02-15T03:36:38.008Z,101776.13
2024-02-15T03:41:34.950Z,101777.69
2024-02-15T03:46:32.916Z,101779.75
2024-02-15T03:51:29.636Z,101788.56
2024-02-15T03:56:26.378Z,101782.81
2024-02-15T04:01:23.021Z,101779.31
2024-02-15T04:06:20.819Z,101788.16
2024-02-15T04:11:17.380Z,101790.88
2024-02-15T04:16:14.352Z,101802.22
2024-02-15T04:21:10.897Z,101806.53
2024-02-15T04:26:08.230Z,101804.63
2024-02-15T04:31:05.910Z,101809.78
2024-02-15T04:36:07.100Z,101808.19
2024-02-15T04:41:04.460Z,101808.16
2024-02-15T04:46:01.798Z,101814.50
2024-02-15T04:50:59.894Z,101818.88
2024-02-15T04:55:56.425Z,101816.25
2024-02-15T05:00:57.733Z,101820.53
2024-02-15T05:05:55.151Z,101827.22
2024-02-15T05:10:57.001Z,101841.06
2024-02-15T05:15:53.545Z,101841.06
2024-02-15T05:20:50.109Z,101844.66
2024-02-15T05:25:47.430Z,101857.94
2024-02-15T05:30:45.142Z,101853.50
2024-02-15T05:35:43.732Z,101860.44
2024-02-15T05:40:40.332Z,101867.25
2024-02-15T05:45:40.135Z,101876.06
2024-02-15T05:50:36.845Z,101871.75
2024-02-15T05:55:34.835Z,101879.72
2024-02-15T06:00:31.717Z,101884.97
2024-02-15T06:05:29.351Z,101892.78
2024-02-15T06:10:26.321Z,101903.25
2024-02-15T06:15:24.122Z,101898.84
2024-02-15T06:20:21.756Z,101898.84
2024-02-15T06:25:21.206Z,101902.31
2024-02-15T06:30:35.703Z,101910.94
2024-02-15T06:35:50.602Z,101906.56
2024-02-15T06:40:47.953Z,101915.34
2024-02-15T06:45:47.098Z,101916.25
2024-02-15T06:50:43.690Z,101917.13
2024-02-15T06:55:40.743Z,101913.69
2024-02-15T07:00:40.418Z,101906.72
2024-02-15T07:05:38.584Z,101911.03
2024-02-15T07:10:35.141Z,101914.50
2024-02-15T07:15:33.535Z,101905.81
2024-02-15T07:20:31.354Z,101903.16
2024-02-15T07:25:28.021Z,101902.06
2024-02-15T07:30:26.504Z,101910.09
2024-02-15T07:35:25.454Z,101889.22
2024-02-15T07:40:22.897Z,101902.34
2024-02-15T07:45:19.555Z,101909.31
2024-02-15T07:50:20.501Z,101899.75
2024-02-15T07:55:17.113Z,101893.66
2024-02-15T08:00:16.936Z,101908.38
2024-02-15T08:05:15.095Z,101905.75
2024-02-15T08:10:13.540Z,101904.88
2024-02-15T08:15:12.446Z,101908.34
2024-02-15T08:20:11.052Z,101912.72
2024-02-15T08:25:10.813Z,101902.13
2024-02-15T08:30:09.759Z,101900.44
2024-02-15T08:35:08.347Z,101895.09
2024-02-15T08:40:11.292Z,101883.56
2024-02-15T08:45:09.618Z,101889.75
2024-02-15T08:50:07.097Z,101889.66
2024-02-15T08:55:07.312Z,101893.97
2024-02-15T09:00:10.323Z,101892.91
2024-02-15T09:05:07.267Z,101892.84
2024-02-15T09:10:03.961Z,101890.94
2024-02-15T09:15:00.548Z,101883.69
2024-02-15T09:19:57.849Z,101884.63
2024-02-15T09:24:54.500Z,101880.16
2024-02-15T09:29:51.039Z,101876.56
2024-02-15T09:34:47.703Z,101867.66
2024-02-15T09:39:45.087Z,101870.66
2024-02-15T09:44:44.294Z,101870.63
2024-02-15T09:49:41.549Z,101864.53
2024-02-15T09:54:40.452Z,101853.81
2024-02-15T09:59:38.018Z,101851.69
2024-02-15T10:04:35.159Z,101844.44
2024-02-15T10:09:31.877Z,101846.19
2024-02-15T10:14:29.617Z,101846.88
2024-02-15T10:19:27.628Z,101840.38
2024-02-15T10:24:24.744Z,101842.53
2024-02-15T10:29:21.297Z,101829.63
2024-02-15T10:34:19.684Z,101823.84
2024-02-15T10:39:19.938Z,101816.03
2024-02-15T10:44:19.366Z,101818.91
2024-02-15T10:49:17.529Z,101812.56
2024-02-15T10:54:16.624Z,101805.09
2024-02-15T10:59:17.648Z,101799.84
2024-02-15T11:04:16.008Z,101797.31
2024-02-15T11:09:13.947Z,101792.69
2024-02-15T11:14:27.755Z,101794.09
2024-02-15T11:19:46.434Z,101792.38
2024-02-15T11:24:46.964Z,101779.94
2024-02-15T11:29:50.858Z,101776.13
2024-02-15T11:34:48.698Z,101771.25
2024-02-15T11:39:46.459Z,101763.84
2024-02-15T11:44:43.031Z,101768.13
2024-02-15T11:49:40.593Z,101769.91
2024-02-15T11:54:37.738Z,101768.88
2024-02-15T11:59:53.859Z,101763.41
2024-02-15T12:05:08.930Z,101751.03
2024-02-15T12:10:23.832Z,101749.25
2024-02-15T12:15:38.892Z,101749.16
2024-02-15T12:20:36.545Z,101754.50
2024-02-15T12:25:36.114Z,101750.91
2024-02-15T12:30:33.725Z,101748.22
2024-02-15T12:35:30.268Z,101745.75
2024-02-15T12:40:31.343Z,101746.72
2024-02-15T12:45:30.148Z,101745.75
2024-02-15T12:50:28.743Z,101746.41
2024-02-15T12:55:25.862Z,101747.13
2024-02-15T13:00:28.587Z,101747.41
2024-02-15T13:05:26.768Z,101741.97
2024-02-15T13:10:24.213Z,101741.88
2024-02-15T13:15:22.090Z,101742.84
2024-02-15T13:20:20.945Z,101744.25
2024-02-15T13:25:17.855Z,101741.59
2024-02-15T13:30:14.784Z,101733.44
2024-02-15T13:35:13.592Z,101739.59
2024-02-15T13:40:15.526Z,101735.09
2024-02-15T13:45:14.357Z,101733.94
2024-02-15T13:50:14.692Z,101739.88
2024-02-15T13:55:12.658Z,101738.03
2024-02-15T14:00:13.693Z,101743.13
2024-02-15T14:05:11.956Z,101740.34
2024-02-15T14:10:08.828Z,101737.69
2024-02-15T14:15:07.366Z,101735.84
2024-02-15T14:20:08.890Z,101739.34
2024-02-15T14:25:06.343Z,101741.97
2024-02-15T14:30:20.628Z,101736.69
2024-02-15T14:35:18.026Z,101737.59
2024-02-15T14:40:18.602Z,101738.50
2024-02-15T14:45:15.732Z,101736.75
2024-02-15T14:50:14.424Z,101733.41
2024-02-15T14:55:11.952Z,101737.84
2024-02-15T15:00:12.836Z,101736.78
2024-02-15T15:05:27.740Z,101742.00
2024-02-15T15:10:43.033Z,101741.06
2024-02-15T15:15:40.436Z,101742.09
2024-02-15T15:20:37.708Z,101750.66
2024-02-15T15:25:35.303Z,101758.66
2024-02-15T15:30:32.125Z,101755.94
2024-02-15T15:35:32.893Z,101748.91
2024-02-15T15:40:32.422Z,101762.03
2024-02-15T15:45:30.177Z,101761.88
2024-02-15T15:50:28.779Z,101767.09
2024-02-15T15:55:26.517Z,101770.41
2024-02-15T16:00:23.503Z,101783.19
2024-02-15T16:05:21.091Z,101775.16
2024-02-15T16:10:18.728Z,101782.78
2024-02-15T16:15:15.351Z,101793.97
2024-02-15T16:20:14.233Z,101794.25
2024-02-15T16:25:13.988Z,101798.28
2024-02-15T16:30:11.293Z,101800.72
2024-02-15T16:35:11.253Z,101812.75
2024-02-15T16:40:09.275Z,101814.81
2024-02-15T16:45:07.933Z,101810.66
2024-02-15T16:50:08.110Z,101819.97
2024-02-15T16:55:06.296Z,101818.72
2024-02-15T17:00:05.802Z,101821.06
2024-02-15T17:05:04.542Z,101824.84
2024-02-15T17:10:01.198Z,101831.56
2024-02-15T17:14:57.853Z,101835.78
2024-02-15T17:19:54.448Z,101846.56
2024-02-15T17:24:51.683Z,101845.56
2024-02-15T17:29:48.279Z,101852.66
2024-02-15T17:34:45.181Z,101847.22
2024-02-15T17:39:43.755Z,101857.72
2024-02-15T17:44:44.878Z,101844.88
2024-02-15T17:49:41.425Z,101859.06
2024-02-15T17:54:38.145Z,101855.63
2024-02-15T17:59:35.165Z,101847.13
2024-02-15T18:04:32.502Z,101844.19
2024-02-15T18:09:29.414Z,101861.88
2024-02-15T18:14:26.303Z,101860.03
2024-02-15T18:19:22.820Z,101862.31
2024-02-15T18:24:20.166Z,101868.91
2024-02-15T18:29:19.074Z,101873.75
2024-02-15T18:34:15.746Z,101871.34
2024-02-15T18:39:13.003Z,101879.41
2024-02-15T18:44:11.993Z,101890.69
2024-02-15T18:49:20.324Z,101891.22
2024-02-15T18:54:24.760Z,101891.56
2024-02-15T18:59:22.384Z,101889.50
2024-02-15T19:04:19.137Z,101890.72
2024-02-15T19:09:18.501Z,101882.28
2024-02-15T19:14:16.235Z,101888.72
2024-02-15T19:19:13.605Z,101882.19
2024-02-15T19:24:10.469Z,101890.84
2024-02-15T19:29:08.213Z,101901.25
2024-02-15T19:34:04.887Z,101889.50
2024-02-15T19:39:02.233Z,101892.81
2024-02-15T19:43:58.783Z,101883.91
2024-02-15T19:48:55.500Z,101884.78
2024-02-15T19:53:52.267Z,101887.22
2024-02-15T19:58:49.515Z,101890.72
2024-02-15T20:03:47.592Z,101903.88
2024-02-15T20:08:45.054Z,101902.38
2024-02-15T20:13:42.329Z,101911.28
2024-02-15T20:18:40.776Z,101922.97
2024-02-15T20:23:39.630Z,101937.09
2024-02-15T20:28:36.372Z,101930.22
2024-02-15T20:33:33.740Z,101923.09
2024-02-15T20:38:31.587Z,101925.69
2024-02-15T20:43:29.040Z,101925.53
2024-02-15T20:48:26.119Z,101929.81
2024-02-15T20:53:22.732Z,101929.81
2024-02-15T20:58:19.889Z,101926.97
2024-02-15T21:03:17.576Z,101938.50
2024-02-15T21:08:14.222Z,101930.63
2024-02-15T21:13:11.090Z,101932.63
2024-02-15T21:18:10.541Z,101941.56
2024-02-15T21:23:09.981Z,101942.66
2024-02-15T21:28:08.142Z,101946.06
2024-02-15T21:33:06.219Z,101948.69
2024-02-15T21:38:03.945Z,101949.56
2024-02-15T21:43:00.562Z,101958.53
2024-02-15T21:47:57.332Z,101944.44
2024-02-15T21:52:53.888Z,101955.00
2024-02-15T21:57:51.077Z,101958.53
2024-02-15T22:02:47.700Z,101958.53
2024-02-15T22:07:44.296Z,101957.63
2024-02-15T22:12:40.811Z,101964.63
2024-02-15T22:17:38.320Z,101972.59
2024-02-15T22:22:35.207Z,101977.78
2024-02-15T22:27:31.881Z,101971.72
2024-02-15T22:32:28.454Z,101980.47
2024-02-15T22:37:27.860Z,101977.75
2024-02-15T22:42:24.395Z,101971.56
2024-02-15T22:47:20.864Z,101977.63
2024-02-15T22:52:19.468Z,101977.84
2024-02-15T22:57:16.912Z,101981.25
2024-02-15T23:02:13.377Z,101979.28
2024-02-15T23:07:10.442Z,101978.47
2024-02-15T23:12:07.283Z,101981.25
2024-02-15T23:17:04.712Z,101981.97
2024-02-15T23:22:01.247Z,101980.34
2024-02-15T23:26:57.838Z,101987.56
2024-02-15T23:31:54.386Z,101979.63
2024-02-15T23:37:09.686Z,101974.28
2024-02-15T23:42:06.298Z,101975.22
2024-02-15T23:47:02.978Z,101975.31
2024-02-15T23:52:00.226Z,101973.44
2024-02-15T23:56:56.883Z,101984.13
